sensor_id;sensor_type;location;lat;lon;timestamp;temperature;humidity
79439;DHT22;68889;48.232;10.110;2023-05-07T00:00:51;11.60;90.80
79439;DHT22;68889;48.232;10.110;2023-05-07T00:03:16;11.60;90.90
79439;DHT22;68889;48.232;10.110;2023-05-07T00:05:42;11.60;92.50
79439;DHT22;68889;48.232;10.110;2023-05-07T00:08:07;11.60;92.30
79439;DHT22;68889;48.232;10.110;2023-05-07T00:10:33;11.60;91.00
79439;DHT22;68889;48.232;10.110;2023-05-07T00:12:59;11.60;91.90
79439;DHT22;68889;48.232;10.110;2023-05-07T00:15:24;11.50;91.50
79439;DHT22;68889;48.232;10.110;2023-05-07T00:17:50;11.50;90.60
79439;DHT22;68889;48.232;10.110;2023-05-07T00:20:16;11.50;92.50
79439;DHT22;68889;48.232;10.110;2023-05-07T00:22:41;11.50;92.00
79439;DHT22;68889;48.232;10.110;2023-05-07T00:25:07;11.50;92.40
79439;DHT22;68889;48.232;10.110;2023-05-07T00:27:33;11.50;91.40
79439;DHT22;68889;48.232;10.110;2023-05-07T00:29:58;11.40;92.50
79439;DHT22;68889;48.232;10.110;2023-05-07T00:32:24;11.40;92.90
79439;DHT22;68889;48.232;10.110;2023-05-07T00:34:49;11.40;91.60
79439;DHT22;68889;48.232;10.110;2023-05-07T00:37:16;11.40;93.00
79439;DHT22;68889;48.232;10.110;2023-05-07T00:39:41;11.30;92.40
79439;DHT22;68889;48.232;10.110;2023-05-07T00:42:07;11.30;93.40
79439;DHT22;68889;48.232;10.110;2023-05-07T00:44:33;11.30;94.00
79439;DHT22;68889;48.232;10.110;2023-05-07T00:47:02;11.30;94.00
79439;DHT22;68889;48.232;10.110;2023-05-07T00:49:39;11.30;93.40
79439;DHT22;68889;48.232;10.110;2023-05-07T00:52:07;11.20;93.20
79439;DHT22;68889;48.232;10.110;2023-05-07T00:54:34;11.30;92.80
79439;DHT22;68889;48.232;10.110;2023-05-07T00:57:01;11.20;93.80
79439;DHT22;68889;48.232;10.110;2023-05-07T00:59:27;11.20;93.20
79439;DHT22;68889;48.232;10.110;2023-05-07T01:01:52;11.20;92.20
79439;DHT22;68889;48.232;10.110;2023-05-07T01:04:18;11.10;91.20
79439;DHT22;68889;48.232;10.110;2023-05-07T01:06:44;11.10;92.40
79439;DHT22;68889;48.232;10.110;2023-05-07T01:09:10;11.10;93.60
79439;DHT22;68889;48.232;10.110;2023-05-07T01:11:37;11.10;93.20
79439;DHT22;68889;48.232;10.110;2023-05-07T01:14:03;11.00;94.30
79439;DHT22;68889;48.232;10.110;2023-05-07T01:16:29;11.00;95.00
79439;DHT22;68889;48.232;10.110;2023-05-07T01:18:54;11.00;95.20
79439;DHT22;68889;48.232;10.110;2023-05-07T01:21:25;11.00;95.00
79439;DHT22;68889;48.232;10.110;2023-05-07T01:23:52;11.00;94.20
79439;DHT22;68889;48.232;10.110;2023-05-07T01:26:17;11.00;94.60
79439;DHT22;68889;48.232;10.110;2023-05-07T01:28:45;11.00;94.40
79439;DHT22;68889;48.232;10.110;2023-05-07T01:31:12;11.00;93.10
79439;DHT22;68889;48.232;10.110;2023-05-07T01:33:40;10.90;93.20
79439;DHT22;68889;48.232;10.110;2023-05-07T01:36:07;10.90;93.70
79439;DHT22;68889;48.232;10.110;2023-05-07T01:38:34;10.90;93.50
79439;DHT22;68889;48.232;10.110;2023-05-07T01:41:01;10.90;93.20
79439;DHT22;68889;48.232;10.110;2023-05-07T01:43:28;10.90;93.70
79439;DHT22;68889;48.232;10.110;2023-05-07T01:45:54;10.90;93.90
79439;DHT22;68889;48.232;10.110;2023-05-07T01:48:20;10.80;94.40
79439;DHT22;68889;48.232;10.110;2023-05-07T01:50:47;10.80;93.90
79439;DHT22;68889;48.232;10.110;2023-05-07T01:53:13;10.80;93.30
79439;DHT22;68889;48.232;10.110;2023-05-07T01:55:38;10.70;93.70
79439;DHT22;68889;48.232;10.110;2023-05-07T01:58:05;10.70;93.30
79439;DHT22;68889;48.232;10.110;2023-05-07T02:00:31;10.70;93.20
79439;DHT22;68889;48.232;10.110;2023-05-07T02:02:57;10.70;94.40
79439;DHT22;68889;48.232;10.110;2023-05-07T02:05:23;10.70;93.10
79439;DHT22;68889;48.232;10.110;2023-05-07T02:07:49;10.70;94.10
79439;DHT22;68889;48.232;10.110;2023-05-07T02:10:14;10.60;94.00
79439;DHT22;68889;48.232;10.110;2023-05-07T02:12:40;10.60;94.40
79439;DHT22;68889;48.232;10.110;2023-05-07T02:15:06;10.60;94.90
79439;DHT22;68889;48.232;10.110;2023-05-07T02:17:31;10.50;94.40
79439;DHT22;68889;48.232;10.110;2023-05-07T02:19:58;10.50;94.80
79439;DHT22;68889;48.232;10.110;2023-05-07T02:22:24;10.50;95.00
79439;DHT22;68889;48.232;10.110;2023-05-07T02:24:50;10.50;96.40
79439;DHT22;68889;48.232;10.110;2023-05-07T02:27:16;10.50;95.70
79439;DHT22;68889;48.232;10.110;2023-05-07T02:29:41;10.50;94.60
79439;DHT22;68889;48.232;10.110;2023-05-07T02:32:07;10.50;94.50
79439;DHT22;68889;48.232;10.110;2023-05-07T02:34:32;10.50;94.70
79439;DHT22;68889;48.232;10.110;2023-05-07T02:36:58;10.50;95.00
79439;DHT22;68889;48.232;10.110;2023-05-07T02:39:23;10.50;95.30
79439;DHT22;68889;48.232;10.110;2023-05-07T02:41:49;10.40;95.80
79439;DHT22;68889;48.232;10.110;2023-05-07T02:44:15;10.40;95.30
79439;DHT22;68889;48.232;10.110;2023-05-07T02:46:40;10.30;94.60
79439;DHT22;68889;48.232;10.110;2023-05-07T02:49:06;10.30;94.60
79439;DHT22;68889;48.232;10.110;2023-05-07T02:51:31;10.30;94.90
79439;DHT22;68889;48.232;10.110;2023-05-07T02:53:57;10.30;96.20
79439;DHT22;68889;48.232;10.110;2023-05-07T02:56:22;10.30;96.60
79439;DHT22;68889;48.232;10.110;2023-05-07T02:58:48;10.20;96.30
79439;DHT22;68889;48.232;10.110;2023-05-07T03:01:13;10.20;96.80
79439;DHT22;68889;48.232;10.110;2023-05-07T03:03:40;10.20;97.30
79439;DHT22;68889;48.232;10.110;2023-05-07T03:06:06;10.20;96.50
79439;DHT22;68889;48.232;10.110;2023-05-07T03:08:32;10.10;96.60
79439;DHT22;68889;48.232;10.110;2023-05-07T03:10:58;10.10;96.50
79439;DHT22;68889;48.232;10.110;2023-05-07T03:13:23;10.10;96.90
79439;DHT22;68889;48.232;10.110;2023-05-07T03:15:49;10.10;96.80
79439;DHT22;68889;48.232;10.110;2023-05-07T03:18:14;10.10;96.90
79439;DHT22;68889;48.232;10.110;2023-05-07T03:20:40;10.00;96.20
79439;DHT22;68889;48.232;10.110;2023-05-07T03:23:05;10.00;96.10
79439;DHT22;68889;48.232;10.110;2023-05-07T03:25:32;9.90;95.00
79439;DHT22;68889;48.232;10.110;2023-05-07T03:27:57;9.90;96.00
79439;DHT22;68889;48.232;10.110;2023-05-07T03:30:23;9.90;95.80
79439;DHT22;68889;48.232;10.110;2023-05-07T03:32:49;9.90;96.50
79439;DHT22;68889;48.232;10.110;2023-05-07T03:35:14;9.90;97.00
79439;DHT22;68889;48.232;10.110;2023-05-07T03:37:40;9.90;96.70
79439;DHT22;68889;48.232;10.110;2023-05-07T03:40:06;9.80;96.20
79439;DHT22;68889;48.232;10.110;2023-05-07T03:42:33;9.70;96.90
79439;DHT22;68889;48.232;10.110;2023-05-07T03:44:58;9.70;97.60
79439;DHT22;68889;48.232;10.110;2023-05-07T03:47:24;9.70;96.80
79439;DHT22;68889;48.232;10.110;2023-05-07T03:49:50;9.60;97.00
79439;DHT22;68889;48.232;10.110;2023-05-07T03:52:18;9.60;96.30
79439;DHT22;68889;48.232;10.110;2023-05-07T03:54:48;9.60;95.90
79439;DHT22;68889;48.232;10.110;2023-05-07T03:57:13;9.50;96.00
79439;DHT22;68889;48.232;10.110;2023-05-07T03:59:39;9.50;96.00
79439;DHT22;68889;48.232;10.110;2023-05-07T04:02:05;9.50;96.90
79439;DHT22;68889;48.232;10.110;2023-05-07T04:04:30;9.50;96.70
79439;DHT22;68889;48.232;10.110;2023-05-07T04:06:58;9.50;96.30
79439;DHT22;68889;48.232;10.110;2023-05-07T04:09:24;9.40;96.70
79439;DHT22;68889;48.232;10.110;2023-05-07T04:11:50;9.40;95.80
79439;DHT22;68889;48.232;10.110;2023-05-07T04:14:16;9.40;96.30
79439;DHT22;68889;48.232;10.110;2023-05-07T04:16:41;9.40;96.10
79439;DHT22;68889;48.232;10.110;2023-05-07T04:19:07;9.40;95.50
79439;DHT22;68889;48.232;10.110;2023-05-07T04:21:32;9.40;95.70
79439;DHT22;68889;48.232;10.110;2023-05-07T04:23:58;9.40;95.70
79439;DHT22;68889;48.232;10.110;2023-05-07T04:26:23;9.40;96.50
79439;DHT22;68889;48.232;10.110;2023-05-07T04:28:49;9.50;97.00
79439;DHT22;68889;48.232;10.110;2023-05-07T04:31:15;9.50;97.70
79439;DHT22;68889;48.232;10.110;2023-05-07T04:33:41;9.60;97.90
79439;DHT22;68889;48.232;10.110;2023-05-07T04:36:06;9.50;96.60
79439;DHT22;68889;48.232;10.110;2023-05-07T04:38:32;9.50;95.90
79439;DHT22;68889;48.232;10.110;2023-05-07T04:41:08;9.50;95.90
79439;DHT22;68889;48.232;10.110;2023-05-07T04:43:34;9.60;96.10
79439;DHT22;68889;48.232;10.110;2023-05-07T04:46:00;9.60;96.00
79439;DHT22;68889;48.232;10.110;2023-05-07T04:48:26;9.60;97.00
79439;DHT22;68889;48.232;10.110;2023-05-07T04:50:51;9.60;96.80
79439;DHT22;68889;48.232;10.110;2023-05-07T04:53:18;9.70;96.80
79439;DHT22;68889;48.232;10.110;2023-05-07T04:55:44;9.70;96.20
79439;DHT22;68889;48.232;10.110;2023-05-07T04:58:11;9.70;96.70
79439;DHT22;68889;48.232;10.110;2023-05-07T05:00:37;9.70;96.80
79439;DHT22;68889;48.232;10.110;2023-05-07T05:03:02;9.80;97.40
79439;DHT22;68889;48.232;10.110;2023-05-07T05:05:28;9.90;97.30
79439;DHT22;68889;48.232;10.110;2023-05-07T05:07:54;9.90;96.90
79439;DHT22;68889;48.232;10.110;2023-05-07T05:10:19;10.00;96.30
79439;DHT22;68889;48.232;10.110;2023-05-07T05:12:45;10.10;96.50
79439;DHT22;68889;48.232;10.110;2023-05-07T05:15:14;10.10;96.70
79439;DHT22;68889;48.232;10.110;2023-05-07T05:17:39;10.20;96.80
79439;DHT22;68889;48.232;10.110;2023-05-07T05:20:05;10.30;97.20
79439;DHT22;68889;48.232;10.110;2023-05-07T05:22:32;10.30;97.50
79439;DHT22;68889;48.232;10.110;2023-05-07T05:24:57;10.40;97.60
79439;DHT22;68889;48.232;10.110;2023-05-07T05:27:23;10.50;97.90
79439;DHT22;68889;48.232;10.110;2023-05-07T05:29:49;10.60;97.40
79439;DHT22;68889;48.232;10.110;2023-05-07T05:32:15;10.80;96.90
79439;DHT22;68889;48.232;10.110;2023-05-07T05:34:40;10.90;95.80
79439;DHT22;68889;48.232;10.110;2023-05-07T05:37:06;11.10;95.30
79439;DHT22;68889;48.232;10.110;2023-05-07T05:39:32;11.20;95.50
79439;DHT22;68889;48.232;10.110;2023-05-07T05:41:57;11.30;95.70
79439;DHT22;68889;48.232;10.110;2023-05-07T05:44:23;11.40;96.20
79439;DHT22;68889;48.232;10.110;2023-05-07T05:46:48;11.50;96.10
79439;DHT22;68889;48.232;10.110;2023-05-07T05:49:15;11.60;95.30
79439;DHT22;68889;48.232;10.110;2023-05-07T05:51:40;11.70;94.80
79439;DHT22;68889;48.232;10.110;2023-05-07T05:54:06;11.90;94.50
79439;DHT22;68889;48.232;10.110;2023-05-07T05:56:31;12.00;95.10
79439;DHT22;68889;48.232;10.110;2023-05-07T05:58:57;12.20;94.40
79439;DHT22;68889;48.232;10.110;2023-05-07T06:01:23;12.30;93.80
79439;DHT22;68889;48.232;10.110;2023-05-07T06:03:48;12.40;93.30
79439;DHT22;68889;48.232;10.110;2023-05-07T06:06:14;12.60;93.00
79439;DHT22;68889;48.232;10.110;2023-05-07T06:08:40;12.70;93.30
79439;DHT22;68889;48.232;10.110;2023-05-07T06:11:05;12.80;93.30
79439;DHT22;68889;48.232;10.110;2023-05-07T06:13:31;12.90;92.70
79439;DHT22;68889;48.232;10.110;2023-05-07T06:15:56;13.10;92.10
79439;DHT22;68889;48.232;10.110;2023-05-07T06:18:22;13.20;91.60
79439;DHT22;68889;48.232;10.110;2023-05-07T06:20:47;13.30;91.20
79439;DHT22;68889;48.232;10.110;2023-05-07T06:23:14;13.50;90.80
79439;DHT22;68889;48.232;10.110;2023-05-07T06:25:39;13.60;91.90
79439;DHT22;68889;48.232;10.110;2023-05-07T06:28:05;13.80;89.70
79439;DHT22;68889;48.232;10.110;2023-05-07T06:30:31;13.90;90.20
79439;DHT22;68889;48.232;10.110;2023-05-07T06:32:57;14.10;90.00
79439;DHT22;68889;48.232;10.110;2023-05-07T06:35:22;14.30;89.60
79439;DHT22;68889;48.232;10.110;2023-05-07T06:37:48;14.50;88.90
79439;DHT22;68889;48.232;10.110;2023-05-07T06:40:13;14.60;86.40
79439;DHT22;68889;48.232;10.110;2023-05-07T06:42:39;14.80;87.60
79439;DHT22;68889;48.232;10.110;2023-05-07T06:45:05;15.00;86.30
79439;DHT22;68889;48.232;10.110;2023-05-07T06:47:31;15.30;86.30
79439;DHT22;68889;48.232;10.110;2023-05-07T06:49:56;15.50;85.90
79439;DHT22;68889;48.232;10.110;2023-05-07T06:52:22;15.80;85.30
79439;DHT22;68889;48.232;10.110;2023-05-07T06:54:47;16.10;85.10
79439;DHT22;68889;48.232;10.110;2023-05-07T06:57:13;16.30;84.00
79439;DHT22;68889;48.232;10.110;2023-05-07T06:59:38;16.50;82.60
79439;DHT22;68889;48.232;10.110;2023-05-07T07:02:04;16.70;82.60
79439;DHT22;68889;48.232;10.110;2023-05-07T07:04:29;16.90;82.50
79439;DHT22;68889;48.232;10.110;2023-05-07T07:06:56;17.10;80.80
79439;DHT22;68889;48.232;10.110;2023-05-07T07:09:22;17.30;80.20
79439;DHT22;68889;48.232;10.110;2023-05-07T07:11:48;17.50;80.70
79439;DHT22;68889;48.232;10.110;2023-05-07T07:17:35;18.10;78.70
79439;DHT22;68889;48.232;10.110;2023-05-07T07:20:01;18.40;78.20
79439;DHT22;68889;48.232;10.110;2023-05-07T07:22:28;18.70;78.60
79439;DHT22;68889;48.232;10.110;2023-05-07T07:24:54;18.80;75.50
79439;DHT22;68889;48.232;10.110;2023-05-07T07:27:20;18.80;76.20
79439;DHT22;68889;48.232;10.110;2023-05-07T07:29:45;19.00;75.20
79439;DHT22;68889;48.232;10.110;2023-05-07T07:32:11;19.00;73.80
79439;DHT22;68889;48.232;10.110;2023-05-07T07:34:36;19.10;76.30
79439;DHT22;68889;48.232;10.110;2023-05-07T07:37:02;19.30;76.00
79439;DHT22;68889;48.232;10.110;2023-05-07T07:39:31;19.50;73.00
79439;DHT22;68889;48.232;10.110;2023-05-07T07:41:56;19.70;72.80
79439;DHT22;68889;48.232;10.110;2023-05-07T07:44:22;19.90;72.90
79439;DHT22;68889;48.232;10.110;2023-05-07T07:46:47;20.10;74.40
79439;DHT22;68889;48.232;10.110;2023-05-07T07:49:13;20.30;71.30
79439;DHT22;68889;48.232;10.110;2023-05-07T07:51:39;20.30;72.40
79439;DHT22;68889;48.232;10.110;2023-05-07T07:54:05;20.30;70.70
79439;DHT22;68889;48.232;10.110;2023-05-07T07:56:32;20.40;72.90
79439;DHT22;68889;48.232;10.110;2023-05-07T07:58:59;20.80;74.00
79439;DHT22;68889;48.232;10.110;2023-05-07T08:01:24;21.00;70.80
79439;DHT22;68889;48.232;10.110;2023-05-07T08:03:51;21.20;70.40
79439;DHT22;68889;48.232;10.110;2023-05-07T08:06:16;21.30;70.60
79439;DHT22;68889;48.232;10.110;2023-05-07T08:08:42;21.50;67.90
79439;DHT22;68889;48.232;10.110;2023-05-07T08:11:08;21.70;67.80
79439;DHT22;68889;48.232;10.110;2023-05-07T08:13:33;21.90;66.70
79439;DHT22;68889;48.232;10.110;2023-05-07T08:15:59;21.90;67.70
79439;DHT22;68889;48.232;10.110;2023-05-07T08:18:25;21.90;69.80
79439;DHT22;68889;48.232;10.110;2023-05-07T08:20:51;22.00;68.60
79439;DHT22;68889;48.232;10.110;2023-05-07T08:23:16;22.00;69.40
79439;DHT22;68889;48.232;10.110;2023-05-07T08:25:42;22.10;70.10
79439;DHT22;68889;48.232;10.110;2023-05-07T08:28:08;22.10;70.50
79439;DHT22;68889;48.232;10.110;2023-05-07T08:30:33;22.00;69.00
79439;DHT22;68889;48.232;10.110;2023-05-07T08:32:59;22.20;66.40
79439;DHT22;68889;48.232;10.110;2023-05-07T08:35:25;22.20;68.70
79439;DHT22;68889;48.232;10.110;2023-05-07T08:37:52;22.40;65.70
79439;DHT22;68889;48.232;10.110;2023-05-07T08:40:18;22.50;64.10
79439;DHT22;68889;48.232;10.110;2023-05-07T08:42:44;22.40;68.40
79439;DHT22;68889;48.232;10.110;2023-05-07T08:45:10;22.40;66.90
79439;DHT22;68889;48.232;10.110;2023-05-07T08:47:47;22.40;69.10
79439;DHT22;68889;48.232;10.110;2023-05-07T08:50:15;22.60;67.20
79439;DHT22;68889;48.232;10.110;2023-05-07T08:52:41;22.70;66.30
79439;DHT22;68889;48.232;10.110;2023-05-07T08:55:08;22.70;65.20
79439;DHT22;68889;48.232;10.110;2023-05-07T08:57:34;23.00;66.40
79439;DHT22;68889;48.232;10.110;2023-05-07T08:59:59;23.10;63.90
79439;DHT22;68889;48.232;10.110;2023-05-07T09:02:25;23.10;64.90
79439;DHT22;68889;48.232;10.110;2023-05-07T09:04:51;23.20;62.60
79439;DHT22;68889;48.232;10.110;2023-05-07T09:07:16;22.90;65.30
79439;DHT22;68889;48.232;10.110;2023-05-07T09:09:43;22.80;61.80
79439;DHT22;68889;48.232;10.110;2023-05-07T09:12:09;22.60;64.80
79439;DHT22;68889;48.232;10.110;2023-05-07T09:14:35;22.70;67.50
79439;DHT22;68889;48.232;10.110;2023-05-07T09:17:01;22.80;64.00
79439;DHT22;68889;48.232;10.110;2023-05-07T09:19:27;22.90;64.00
79439;DHT22;68889;48.232;10.110;2023-05-07T09:22:00;23.10;62.40
79439;DHT22;68889;48.232;10.110;2023-05-07T09:24:26;23.20;62.70
79439;DHT22;68889;48.232;10.110;2023-05-07T09:26:53;23.30;63.00
79439;DHT22;68889;48.232;10.110;2023-05-07T09:29:20;23.50;64.40
79439;DHT22;68889;48.232;10.110;2023-05-07T09:31:46;23.60;62.90
79439;DHT22;68889;48.232;10.110;2023-05-07T09:34:12;23.90;61.00
79439;DHT22;68889;48.232;10.110;2023-05-07T09:36:37;24.00;63.80
79439;DHT22;68889;48.232;10.110;2023-05-07T09:39:03;24.00;60.60
79439;DHT22;68889;48.232;10.110;2023-05-07T09:41:30;24.00;60.30
79439;DHT22;68889;48.232;10.110;2023-05-07T09:43:56;24.40;61.90
79439;DHT22;68889;48.232;10.110;2023-05-07T09:46:26;24.20;60.10
79439;DHT22;68889;48.232;10.110;2023-05-07T09:48:53;24.30;61.80
79439;DHT22;68889;48.232;10.110;2023-05-07T09:51:25;24.40;61.30
79439;DHT22;68889;48.232;10.110;2023-05-07T09:53:53;24.80;60.00
79439;DHT22;68889;48.232;10.110;2023-05-07T09:56:19;24.80;57.70
79439;DHT22;68889;48.232;10.110;2023-05-07T09:58:45;25.00;60.80
79439;DHT22;68889;48.232;10.110;2023-05-07T10:01:12;25.00;60.80
79439;DHT22;68889;48.232;10.110;2023-05-07T10:03:40;25.00;58.20
79439;DHT22;68889;48.232;10.110;2023-05-07T10:06:09;25.20;56.70
79439;DHT22;68889;48.232;10.110;2023-05-07T10:08:36;25.00;57.90
79439;DHT22;68889;48.232;10.110;2023-05-07T10:11:04;25.20;59.10
79439;DHT22;68889;48.232;10.110;2023-05-07T10:13:30;25.20;58.80
79439;DHT22;68889;48.232;10.110;2023-05-07T10:15:56;24.90;57.60
79439;DHT22;68889;48.232;10.110;2023-05-07T10:18:22;24.80;57.20
79439;DHT22;68889;48.232;10.110;2023-05-07T10:20:50;24.70;55.90
79439;DHT22;68889;48.232;10.110;2023-05-07T10:23:19;25.00;60.20
79439;DHT22;68889;48.232;10.110;2023-05-07T10:25:46;25.20;60.20
79439;DHT22;68889;48.232;10.110;2023-05-07T10:28:13;25.30;56.40
79439;DHT22;68889;48.232;10.110;2023-05-07T10:31:07;25.40;57.60
79439;DHT22;68889;48.232;10.110;2023-05-07T10:33:34;25.10;55.50
79439;DHT22;68889;48.232;10.110;2023-05-07T10:36:02;25.20;58.60
79439;DHT22;68889;48.232;10.110;2023-05-07T10:38:30;25.40;58.30
79439;DHT22;68889;48.232;10.110;2023-05-07T10:40:55;25.70;54.20
79439;DHT22;68889;48.232;10.110;2023-05-07T10:43:21;25.80;57.20
79439;DHT22;68889;48.232;10.110;2023-05-07T10:46:09;25.90;57.60
79439;DHT22;68889;48.232;10.110;2023-05-07T10:51:31;26.20;57.80
79439;DHT22;68889;48.232;10.110;2023-05-07T10:56:45;26.60;54.20
79439;DHT22;68889;48.232;10.110;2023-05-07T11:02:05;26.70;54.60
79439;DHT22;68889;48.232;10.110;2023-05-07T11:04:32;26.70;55.20
79439;DHT22;68889;48.232;10.110;2023-05-07T11:12:17;26.10;55.40
79439;DHT22;68889;48.232;10.110;2023-05-07T11:14:43;26.30;55.50
79439;DHT22;68889;48.232;10.110;2023-05-07T11:17:09;26.40;55.40
79439;DHT22;68889;48.232;10.110;2023-05-07T11:19:51;26.70;55.60
79439;DHT22;68889;48.232;10.110;2023-05-07T11:22:36;27.10;53.70
79439;DHT22;68889;48.232;10.110;2023-05-07T11:25:06;27.20;53.20
79439;DHT22;68889;48.232;10.110;2023-05-07T11:27:32;27.40;52.00
79439;DHT22;68889;48.232;10.110;2023-05-07T11:29:58;27.60;51.10
79439;DHT22;68889;48.232;10.110;2023-05-07T11:32:25;27.50;50.80
79439;DHT22;68889;48.232;10.110;2023-05-07T11:34:58;27.60;50.80
79439;DHT22;68889;48.232;10.110;2023-05-07T11:37:25;27.60;49.00
79439;DHT22;68889;48.232;10.110;2023-05-07T11:40:05;27.20;49.50
79439;DHT22;68889;48.232;10.110;2023-05-07T11:42:37;26.80;50.10
79439;DHT22;68889;48.232;10.110;2023-05-07T11:45:03;26.60;50.60
79439;DHT22;68889;48.232;10.110;2023-05-07T11:47:32;26.60;52.20
79439;DHT22;68889;48.232;10.110;2023-05-07T11:50:06;26.50;54.80
79439;DHT22;68889;48.232;10.110;2023-05-07T11:52:33;26.60;53.20
79439;DHT22;68889;48.232;10.110;2023-05-07T11:55:00;26.70;55.30
79439;DHT22;68889;48.232;10.110;2023-05-07T11:57:26;26.90;51.10
79439;DHT22;68889;48.232;10.110;2023-05-07T11:59:56;26.80;51.80
79439;DHT22;68889;48.232;10.110;2023-05-07T12:02:21;26.90;52.40
79439;DHT22;68889;48.232;10.110;2023-05-07T12:04:47;26.80;51.80
79439;DHT22;68889;48.232;10.110;2023-05-07T12:07:14;26.80;49.30
79439;DHT22;68889;48.232;10.110;2023-05-07T12:09:46;26.80;52.80
79439;DHT22;68889;48.232;10.110;2023-05-07T12:12:13;26.80;50.60
79439;DHT22;68889;48.232;10.110;2023-05-07T12:14:45;27.00;54.80
79439;DHT22;68889;48.232;10.110;2023-05-07T12:17:12;26.90;53.60
79439;DHT22;68889;48.232;10.110;2023-05-07T12:19:40;27.20;52.30
79439;DHT22;68889;48.232;10.110;2023-05-07T12:22:10;27.30;52.40
79439;DHT22;68889;48.232;10.110;2023-05-07T12:24:46;27.50;57.40
79439;DHT22;68889;48.232;10.110;2023-05-07T12:27:13;27.40;54.60
79439;DHT22;68889;48.232;10.110;2023-05-07T12:29:39;27.50;53.50
79439;DHT22;68889;48.232;10.110;2023-05-07T12:32:06;27.40;48.80
79439;DHT22;68889;48.232;10.110;2023-05-07T12:34:32;27.10;53.60
79439;DHT22;68889;48.232;10.110;2023-05-07T12:37:02;27.20;54.30
79439;DHT22;68889;48.232;10.110;2023-05-07T12:39:28;26.90;52.70
79439;DHT22;68889;48.232;10.110;2023-05-07T12:41:55;26.90;52.00
79439;DHT22;68889;48.232;10.110;2023-05-07T12:44:33;27.00;49.40
79439;DHT22;68889;48.232;10.110;2023-05-07T12:47:02;27.00;50.00
79439;DHT22;68889;48.232;10.110;2023-05-07T12:49:28;26.80;50.30
79439;DHT22;68889;48.232;10.110;2023-05-07T12:51:54;26.50;54.80
79439;DHT22;68889;48.232;10.110;2023-05-07T12:54:33;26.40;52.60
79439;DHT22;68889;48.232;10.110;2023-05-07T12:57:09;26.40;52.40
79439;DHT22;68889;48.232;10.110;2023-05-07T12:59:37;26.40;51.60
79439;DHT22;68889;48.232;10.110;2023-05-07T13:02:02;26.60;50.50
79439;DHT22;68889;48.232;10.110;2023-05-07T13:04:28;26.80;52.90
79439;DHT22;68889;48.232;10.110;2023-05-07T13:06:54;27.10;50.90
79439;DHT22;68889;48.232;10.110;2023-05-07T13:09:19;27.30;51.60
79439;DHT22;68889;48.232;10.110;2023-05-07T13:11:45;27.60;50.70
79439;DHT22;68889;48.232;10.110;2023-05-07T13:14:11;27.50;50.20
79439;DHT22;68889;48.232;10.110;2023-05-07T13:16:37;27.30;49.30
79439;DHT22;68889;48.232;10.110;2023-05-07T13:19:02;27.20;48.30
79439;DHT22;68889;48.232;10.110;2023-05-07T13:21:28;26.90;51.80
79439;DHT22;68889;48.232;10.110;2023-05-07T13:23:53;26.80;52.90
79439;DHT22;68889;48.232;10.110;2023-05-07T13:26:19;26.70;55.10
79439;DHT22;68889;48.232;10.110;2023-05-07T13:28:45;26.60;50.50
79439;DHT22;68889;48.232;10.110;2023-05-07T13:31:11;26.80;49.30
79439;DHT22;68889;48.232;10.110;2023-05-07T13:33:37;27.00;53.80
79439;DHT22;68889;48.232;10.110;2023-05-07T13:36:02;27.20;53.50
79439;DHT22;68889;48.232;10.110;2023-05-07T13:38:30;27.40;52.00
79439;DHT22;68889;48.232;10.110;2023-05-07T13:40:56;27.20;51.70
79439;DHT22;68889;48.232;10.110;2023-05-07T13:43:21;27.10;53.70
79439;DHT22;68889;48.232;10.110;2023-05-07T13:45:47;27.10;53.80
79439;DHT22;68889;48.232;10.110;2023-05-07T13:48:13;27.00;52.70
79439;DHT22;68889;48.232;10.110;2023-05-07T13:50:38;26.70;52.00
79439;DHT22;68889;48.232;10.110;2023-05-07T13:53:04;26.20;52.20
79439;DHT22;68889;48.232;10.110;2023-05-07T13:55:30;25.80;51.60
79439;DHT22;68889;48.232;10.110;2023-05-07T13:57:57;25.50;53.40
79439;DHT22;68889;48.232;10.110;2023-05-07T14:00:24;25.40;54.40
79439;DHT22;68889;48.232;10.110;2023-05-07T14:02:49;25.50;55.70
79439;DHT22;68889;48.232;10.110;2023-05-07T14:05:15;25.40;54.30
79439;DHT22;68889;48.232;10.110;2023-05-07T14:07:40;25.30;56.30
79439;DHT22;68889;48.232;10.110;2023-05-07T14:10:06;25.10;56.30
79439;DHT22;68889;48.232;10.110;2023-05-07T14:12:32;25.10;54.80
79439;DHT22;68889;48.232;10.110;2023-05-07T14:14:58;25.00;54.10
79439;DHT22;68889;48.232;10.110;2023-05-07T14:17:24;25.00;55.50
79439;DHT22;68889;48.232;10.110;2023-05-07T14:19:51;25.10;56.80
79439;DHT22;68889;48.232;10.110;2023-05-07T14:22:20;24.60;57.80
79439;DHT22;68889;48.232;10.110;2023-05-07T14:24:46;24.50;56.00
79439;DHT22;68889;48.232;10.110;2023-05-07T14:27:12;24.30;58.30
79439;DHT22;68889;48.232;10.110;2023-05-07T14:29:37;24.30;57.00
79439;DHT22;68889;48.232;10.110;2023-05-07T14:32:03;24.10;55.30
79439;DHT22;68889;48.232;10.110;2023-05-07T14:34:29;23.90;58.30
79439;DHT22;68889;48.232;10.110;2023-05-07T14:36:54;24.00;57.00
79439;DHT22;68889;48.232;10.110;2023-05-07T14:39:21;24.10;57.70
79439;DHT22;68889;48.232;10.110;2023-05-07T14:41:46;23.80;55.90
79439;DHT22;68889;48.232;10.110;2023-05-07T14:44:12;23.90;56.00
79439;DHT22;68889;48.232;10.110;2023-05-07T14:46:38;23.70;60.10
79439;DHT22;68889;48.232;10.110;2023-05-07T14:49:03;23.60;58.20
79439;DHT22;68889;48.232;10.110;2023-05-07T14:51:29;23.60;58.10
79439;DHT22;68889;48.232;10.110;2023-05-07T14:53:55;23.60;60.40
79439;DHT22;68889;48.232;10.110;2023-05-07T14:56:21;23.70;60.10
79439;DHT22;68889;48.232;10.110;2023-05-07T14:58:47;23.60;64.00
79439;DHT22;68889;48.232;10.110;2023-05-07T15:01:13;23.80;58.90
79439;DHT22;68889;48.232;10.110;2023-05-07T15:03:39;23.80;61.90
79439;DHT22;68889;48.232;10.110;2023-05-07T15:06:05;23.70;65.10
79439;DHT22;68889;48.232;10.110;2023-05-07T15:08:31;23.90;60.00
79439;DHT22;68889;48.232;10.110;2023-05-07T15:10:56;23.80;58.30
79439;DHT22;68889;48.232;10.110;2023-05-07T15:13:22;23.80;57.10
79439;DHT22;68889;48.232;10.110;2023-05-07T15:15:47;23.70;58.40
79439;DHT22;68889;48.232;10.110;2023-05-07T15:18:14;23.70;58.90
79439;DHT22;68889;48.232;10.110;2023-05-07T15:20:40;23.60;60.60
79439;DHT22;68889;48.232;10.110;2023-05-07T15:23:06;23.50;60.30
79439;DHT22;68889;48.232;10.110;2023-05-07T15:25:35;23.40;59.00
79439;DHT22;68889;48.232;10.110;2023-05-07T15:28:01;23.40;57.50
79439;DHT22;68889;48.232;10.110;2023-05-07T15:30:26;23.20;59.30